Hialeah, Florida
Current Conditions -  °F | °C
As of 2:53 PM on Thursday 29 Jan 2015 (Local Time) from KMIA Reporting Station
Scattered Clouds Scattered Clouds  
Wind Chill: 71°   Ceiling: Unl
Heat Index: 71°   Visibility: 10mi
Dew Point: 47°   Wind: 10mph
Humidity: 42%   Direction: 60°ENE
Pressure: 30.2"   Gusts: NA
Location:  25.86°N, 80.29°W
Report Text: KMIA 291953Z 06009KT 010V100 10SM SCT048 22/08 A3020 RMK AO2 SLP227 T02170083
Loading
Personal Weather Stations






























Interactive Weather Map New forecast layout! Learn more

10-Day Weather Forecast

Advertisements
Track Severe Weather on mobile